Time;durP1;ratioP1;P1;durP2;ratioP2;P2;SDS_P1;SDS_P2;PMS_P1;PMS_P2;Temp;Humidity;BMP_temperature;BMP_pressure;BME280_temperature;BME280_humidity;BME280_pressure;Samples;Min_cycle;Max_cycle;Signal;HPM_P1;HPM_P2
2023/09/21 00:00:12;;;;;;;16.90;7.37;;;;;;;19.15;96.89;95066.06;5094656;28;20848;-81
2023/09/21 00:02:41;;;;;;;16.20;8.07;;;;;;;19.17;96.79;95064.03;5094636;28;20480;-82
2023/09/21 00:05:09;;;;;;;10.80;7.40;;;;;;;19.17;96.94;95064.03;5093919;28;20444;-82
2023/09/21 00:07:36;;;;;;;9.43;7.73;;;;;;;19.17;97.10;95064.03;5094346;28;20755;-82
2023/09/21 00:10:06;;;;;;;9.13;7.20;;;;;;;19.12;97.39;95063.75;5094098;28;20505;-82
2023/09/21 00:12:35;;;;;;;16.20;8.20;;;;;;;19.08;97.06;95057.97;5094619;28;20525;-82
2023/09/21 00:15:06;;;;;;;11.00;8.30;;;;;;;19.11;97.22;95060.28;5094287;28;20463;-82
2023/09/21 00:17:34;;;;;;;10.20;7.87;;;;;;;19.06;97.66;95062.59;5094342;28;20440;-82
2023/09/21 00:20:01;;;;;;;9.10;7.77;;;;;;;19.04;97.73;95061.13;5094247;28;20441;-82
2023/09/21 00:22:32;;;;;;;15.90;7.60;;;;;;;19.05;97.56;95055.63;5058723;28;20821;-82
2023/09/21 00:24:59;;;;;;;8.07;7.27;;;;;;;19.09;97.37;95056.97;5093715;28;20815;-82
2023/09/21 00:27:28;;;;;;;11.07;8.13;;;;;;;19.11;97.35;95062.94;5093635;28;20450;-82
2023/09/21 00:29:55;;;;;;;7.97;6.83;;;;;;;19.16;96.52;95065.88;5074712;28;20434;-82
2023/09/21 00:32:22;;;;;;;15.93;8.97;;;;;;;19.10;96.64;95066.59;5094259;28;20454;-81
2023/09/21 00:34:52;;;;;;;10.20;7.67;;;;;;;19.18;96.39;95071.84;5093803;28;20487;-82
2023/09/21 00:37:18;;;;;;;9.10;8.23;;;;;;;19.22;95.70;95069.66;5094160;28;20480;-82
2023/09/21 00:39:45;;;;;;;14.87;7.40;;;;;;;19.25;95.55;95073.78;5093929;28;20771;-82
2023/09/21 00:42:12;;;;;;;11.60;7.70;;;;;;;19.27;95.38;95085.06;5094115;28;20447;-82
2023/09/21 00:44:40;;;;;;;12.53;7.70;;;;;;;19.29;95.29;95083.88;5094199;28;20445;-81
2023/09/21 00:47:08;;;;;;;14.23;7.70;;;;;;;19.31;94.64;95089.03;5058332;28;20483;-82
2023/09/21 00:49:36;;;;;;;11.77;7.67;;;;;;;19.29;94.83;95091.03;5057014;28;20431;-82
2023/09/21 00:52:03;;;;;;;13.40;7.63;;;;;;;19.25;94.92;95087.91;5093491;28;20485;-82
2023/09/21 00:54:29;;;;;;;9.90;8.10;;;;;;;19.29;95.04;95096.38;5092722;28;20478;-81
2023/09/21 00:56:57;;;;;;;11.80;7.97;;;;;;;19.33;94.91;95101.16;5073649;28;20444;-81
2023/09/21 00:59:24;;;;;;;8.50;7.07;;;;;;;19.34;94.62;95104.63;5093006;28;20498;-81
2023/09/21 01:01:52;;;;;;;11.27;7.90;;;;;;;19.33;94.42;95095.81;5092372;28;20446;-81
2023/09/21 01:04:21;;;;;;;14.53;6.90;;;;;;;19.32;94.42;95106.66;5092473;28;20448;-82
2023/09/21 01:06:48;;;;;;;19.10;7.70;;;;;;;19.35;94.41;95111.63;5092594;28;20484;-82
2023/09/21 01:09:17;;;;;;;10.30;7.97;;;;;;;19.31;94.55;95112.97;5092142;28;20943;-82
2023/09/21 01:11:44;;;;;;;9.73;8.73;;;;;;;19.28;94.41;95097.38;5092683;28;20527;-82
2023/09/21 01:14:11;;;;;;;9.23;8.30;;;;;;;19.31;94.84;95102.34;5092362;28;20886;-82
2023/09/21 01:16:38;;;;;;;11.37;8.27;;;;;;;19.34;95.12;95092.16;5092087;28;20956;-81
2023/09/21 01:19:06;;;;;;;9.17;7.37;;;;;;;19.35;95.07;95088.50;5092581;28;20458;-82
2023/09/21 01:21:36;;;;;;;11.23;7.30;;;;;;;19.25;95.74;95077.28;5095075;28;20930;-81
2023/09/21 01:24:05;;;;;;;13.70;8.90;;;;;;;19.32;96.46;95070.22;5095870;28;20461;-82
2023/09/21 01:26:32;;;;;;;14.13;8.10;;;;;;;19.32;97.15;95066.72;5096220;28;20776;-81
2023/09/21 01:29:01;;;;;;;13.07;7.60;;;;;;;19.29;96.99;95059.94;5095409;28;20509;-82
2023/09/21 01:31:29;;;;;;;8.30;6.80;;;;;;;19.28;97.10;95055.63;5095855;28;20524;-82
2023/09/21 01:33:58;;;;;;;8.80;6.90;;;;;;;19.30;97.30;95052.78;5095870;28;20485;-82
2023/09/21 01:36:26;;;;;;;8.30;7.50;;;;;;;19.24;97.50;95053.50;5095744;28;20522;-81
2023/09/21 01:38:53;;;;;;;8.87;7.60;;;;;;;19.19;97.33;95052.22;5095587;28;20451;-81
2023/09/21 01:41:21;;;;;;;12.33;7.70;;;;;;;19.18;97.72;95055.06;5095444;28;20936;-82
2023/09/21 01:43:48;;;;;;;11.37;7.53;;;;;;;19.14;98.07;95049.28;5095528;28;20443;-81
2023/09/21 01:46:19;;;;;;;15.30;8.90;;;;;;;19.15;98.42;95050.91;5095721;28;20445;-82
2023/09/21 01:48:45;;;;;;;17.83;8.70;;;;;;;19.14;98.51;95041.28;5095601;28;20940;-82
2023/09/21 01:51:13;;;;;;;9.63;7.30;;;;;;;19.06;98.55;95036.00;5095565;28;20442;-82
2023/09/21 01:53:39;;;;;;;10.53;7.80;;;;;;;18.95;98.38;95033.78;5059741;28;20646;-82
2023/09/21 01:56:07;;;;;;;12.33;7.90;;;;;;;18.97;98.08;95039.75;5076091;28;20963;-82
2023/09/21 01:58:35;;;;;;;9.90;7.60;;;;;;;18.96;98.14;95029.28;5095324;28;20441;-81
2023/09/21 02:01:03;;;;;;;9.50;7.63;;;;;;;18.97;98.09;95037.09;5095535;28;20439;-82
2023/09/21 02:03:31;;;;;;;10.60;9.47;;;;;;;19.03;98.14;95025.72;5095108;28;20451;-82
2023/09/21 02:06:02;;;;;;;10.97;7.73;;;;;;;19.08;97.89;95017.22;5059985;28;20492;-82
2023/09/21 02:08:29;;;;;;;14.73;7.00;;;;;;;19.12;97.59;95007.91;5095279;28;20453;-82
2023/09/21 02:10:55;;;;;;;10.10;8.33;;;;;;;19.13;97.47;95010.38;5095437;28;20969;-82
2023/09/21 02:13:22;;;;;;;10.57;8.07;;;;;;;19.16;97.09;95004.69;5094977;28;20887;-82
2023/09/21 02:15:51;;;;;;;10.83;7.90;;;;;;;19.23;97.03;95003.97;5094993;28;20435;-82
2023/09/21 02:18:19;;;;;;;10.30;9.27;;;;;;;19.17;97.05;95000.19;5094968;28;20479;-83
2023/09/21 02:20:45;;;;;;;13.47;8.47;;;;;;;19.15;97.01;94997.72;5094842;28;20568;-82
2023/09/21 02:23:13;;;;;;;8.83;7.60;;;;;;;19.15;97.07;94997.72;5094931;28;20438;-82
2023/09/21 02:25:41;;;;;;;20.87;7.97;;;;;;;19.01;97.48;94998.50;5095007;28;20961;-82
2023/09/21 02:28:11;;;;;;;9.43;7.80;;;;;;;18.98;97.97;94990.03;5094713;28;20905;-82
2023/09/21 02:30:40;;;;;;;8.63;7.40;;;;;;;18.94;98.27;94997.56;5094313;28;20447;-81
2023/09/21 02:33:09;;;;;;;16.67;8.53;;;;;;;18.89;98.39;94991.94;5094594;28;20446;-82
2023/09/21 02:35:41;;;;;;;11.23;7.73;;;;;;;18.87;98.47;94999.28;5096503;28;20805;-82
2023/09/21 02:38:10;;;;;;;9.83;7.43;;;;;;;18.92;98.58;95007.53;5059087;28;20440;-81
2023/09/21 02:40:38;;;;;;;8.93;6.67;;;;;;;18.95;98.23;94995.72;5094305;28;20781;-82
2023/09/21 02:43:05;;;;;;;12.87;8.50;;;;;;;18.94;98.07;94996.72;5094836;28;20480;-82
2023/09/21 02:45:34;;;;;;;10.50;8.27;;;;;;;18.94;97.95;95008.19;5094329;28;20451;-82
2023/09/21 02:48:01;;;;;;;10.20;7.17;;;;;;;18.93;97.40;95005.72;5075917;28;20534;-82
2023/09/21 02:50:31;;;;;;;8.17;6.73;;;;;;;18.88;97.64;95012.41;5094041;28;20484;-82
2023/09/21 02:53:01;;;;;;;10.63;8.10;;;;;;;18.69;99.05;95007.53;5094460;28;20497;-82
2023/09/21 02:55:29;;;;;;;8.00;6.97;;;;;;;18.81;98.28;95010.63;5094128;28;20993;-82
2023/09/21 02:57:58;;;;;;;11.03;7.03;;;;;;;18.88;98.46;95016.88;5094424;28;20495;-83
2023/09/21 03:00:34;;;;;;;10.17;8.07;;;;;;;18.76;99.72;95016.47;5093997;28;20479;-81
2023/09/21 03:03:06;;;;;;;9.60;8.10;;;;;;;18.72;100.00;95012.50;5096726;28;20446;-82
2023/09/21 03:05:36;;;;;;;17.60;8.70;;;;;;;18.74;100.00;95012.31;5094971;28;20483;-82
2023/09/21 03:08:05;;;;;;;9.70;8.80;;;;;;;18.70;100.00;94992.41;5093726;28;20438;-81
2023/09/21 03:10:32;;;;;;;18.93;9.17;;;;;;;18.75;100.00;94998.03;5094129;28;21044;-81
2023/09/21 03:12:58;;;;;;;18.33;9.60;;;;;;;18.80;100.00;95003.66;5093867;28;20440;-82
2023/09/21 03:15:25;;;;;;;12.87;8.70;;;;;;;18.51;100.00;94996.34;5093533;28;20484;-82
2023/09/21 03:17:53;;;;;;;12.00;9.30;;;;;;;18.63;100.00;95002.94;5093933;28;20453;-80
2023/09/21 03:20:28;;;;;;;15.13;9.30;;;;;;;18.72;100.00;95009.03;5093842;28;20467;-82
2023/09/21 03:22:57;;;;;;;17.40;9.57;;;;;;;18.77;100.00;95014.63;5093495;28;20530;-82
2023/09/21 03:25:27;;;;;;;12.10;8.77;;;;;;;18.74;100.00;95014.97;5094348;28;20448;-81
2023/09/21 03:27:56;;;;;;;23.30;9.70;;;;;;;18.75;100.00;95019.28;5093460;28;20447;-82
2023/09/21 03:30:24;;;;;;;10.37;9.23;;;;;;;18.78;100.00;95017.09;5095237;28;20973;-82
2023/09/21 03:32:51;;;;;;;12.23;9.10;;;;;;;18.81;100.00;95026.59;5088399;28;20537;-83
2023/09/21 03:35:18;;;;;;;11.27;9.10;;;;;;;18.84;100.00;95024.41;5093754;28;20486;-82
2023/09/21 03:37:47;;;;;;;11.50;10.30;;;;;;;18.89;100.00;95029.19;5058527;28;20436;-82
2023/09/21 03:40:17;;;;;;;20.60;10.07;;;;;;;18.91;99.98;95018.38;5093584;28;20445;-83
2023/09/21 03:49:28;;;;;;;12.70;8.43;;;;;;;18.93;99.85;95009.19;4991983;28;20414;-79
2023/09/21 03:51:55;;;;;;;16.53;9.97;;;;;;;18.94;99.86;95008.19;4991296;28;20446;-80
2023/09/21 03:54:22;;;;;;;15.33;10.13;;;;;;;18.96;99.81;95006.19;4991300;28;20488;-80
2023/09/21 03:56:50;;;;;;;14.43;9.30;;;;;;;18.98;99.60;95009.50;4991291;28;20441;-80
2023/09/21 03:59:17;;;;;;;14.03;8.43;;;;;;;18.98;99.23;95001.50;4991530;28;20480;-83
2023/09/21 04:01:46;;;;;;;13.20;8.50;;;;;;;19.00;98.91;95014.63;4991192;28;20530;-84
2023/09/21 04:04:17;;;;;;;13.63;9.20;;;;;;;18.97;98.66;95007.84;4991578;28;20451;-80
2023/09/21 04:06:44;;;;;;;12.27;9.30;;;;;;;18.97;99.19;95001.69;4992009;28;20443;-79
2023/09/21 04:09:12;;;;;;;14.77;8.60;;;;;;;18.97;98.95;95002.50;4992753;28;20443;-88
2023/09/21 04:11:39;;;;;;;19.80;9.77;;;;;;;18.93;98.51;95001.22;4993657;28;20509;-89
2023/09/21 04:14:08;;;;;;;15.23;9.50;;;;;;;18.98;98.06;95009.50;4961106;28;21001;-87
2023/09/21 04:16:35;;;;;;;10.33;8.70;;;;;;;18.93;97.49;95006.53;4993006;28;20440;-90
2023/09/21 04:19:05;;;;;;;23.03;8.97;;;;;;;18.91;97.37;95013.88;4993047;28;20854;-85
2023/09/21 04:21:32;;;;;;;11.73;8.23;;;;;;;18.88;97.32;95012.41;4965200;28;20439;-90
2023/09/21 04:23:59;;;;;;;10.27;8.27;;;;;;;18.79;96.82;95018.78;5089597;28;20482;-89
2023/09/21 04:26:26;;;;;;;9.53;8.50;;;;;;;18.79;96.67;95017.94;5093862;28;20498;-89
2023/09/21 04:28:53;;;;;;;10.13;7.87;;;;;;;18.86;96.58;95014.41;5094774;28;20832;-88
2023/09/21 04:31:21;;;;;;;14.67;8.67;;;;;;;18.86;96.44;95019.72;5095047;28;20439;-89
2023/09/21 04:33:48;;;;;;;8.60;7.37;;;;;;;18.84;95.99;95026.22;5094990;28;20492;-86
2023/09/21 04:36:15;;;;;;;8.50;7.30;;;;;;;18.94;96.52;95015.34;5093533;28;20445;-87
2023/09/21 04:38:42;;;;;;;11.00;8.30;;;;;;;18.99;96.51;95010.31;5093780;28;20455;-86
2023/09/21 04:41:14;;;;;;;10.73;7.73;;;;;;;19.01;95.86;95017.09;5094882;28;20444;-88
2023/09/21 04:43:41;;;;;;;9.07;8.13;;;;;;;19.16;98.25;95017.16;5095308;28;20450;-89
2023/09/21 04:46:09;;;;;;;11.07;8.50;;;;;;;19.22;96.38;95012.94;5093758;28;20431;-88
2023/09/21 04:48:38;;;;;;;11.13;8.70;;;;;;;19.18;95.17;95015.97;5076577;28;21009;-88
2023/09/21 04:51:04;;;;;;;18.37;7.87;;;;;;;19.18;95.28;95015.97;5089950;28;20456;-90
2023/09/21 04:53:31;;;;;;;10.17;7.77;;;;;;;19.12;95.22;95016.69;5095344;28;20441;-89
2023/09/21 04:55:58;;;;;;;13.63;8.17;;;;;;;19.21;95.75;95016.63;5098097;28;20483;-90
2023/09/21 04:58:26;;;;;;;26.73;11.70;;;;;;;19.04;97.79;95010.59;5079765;28;20423;-88
2023/09/21 05:00:53;;;;;;;24.83;10.00;;;;;;;18.83;100.00;95020.09;5097042;28;20548;-89
2023/09/21 05:03:20;;;;;;;24.53;11.60;;;;;;;18.61;100.00;95009.41;5096956;28;20478;-89
2023/09/21 05:05:49;;;;;;;13.67;9.63;;;;;;;18.73;100.00;95014.16;5097484;28;20427;-90
2023/09/21 05:08:15;;;;;;;23.53;11.60;;;;;;;18.80;100.00;95008.97;5097932;28;20486;-89
2023/09/21 05:10:42;;;;;;;19.00;10.33;;;;;;;18.76;100.00;95015.63;5097904;28;20472;-89
2023/09/21 05:13:09;;;;;;;16.50;10.47;;;;;;;18.89;100.00;95018.53;5098356;28;20487;-88
2023/09/21 05:15:36;;;;;;;17.10;9.43;;;;;;;18.98;100.00;95025.44;5098408;28;20549;-89
2023/09/21 05:18:05;;;;;;;17.83;9.97;;;;;;;18.94;100.00;95016.16;5097959;28;20469;-86
2023/09/21 05:20:32;;;;;;;10.90;9.20;;;;;;;19.11;100.00;95024.84;5097604;28;20442;-88
2023/09/21 05:23:00;;;;;;;38.03;11.20;;;;;;;19.20;100.00;95026.44;5097236;28;20469;-89
2023/09/21 05:25:28;;;;;;;15.77;10.00;;;;;;;19.25;100.00;95020.56;5097203;28;20440;-89
2023/09/21 05:27:55;;;;;;;15.00;9.77;;;;;;;19.38;99.60;95031.44;5062097;28;20467;-89
2023/09/21 05:30:23;;;;;;;8.57;7.03;;;;;;;19.43;97.60;95031.72;5097175;28;20443;-89
2023/09/21 05:32:49;;;;;;;18.00;7.40;;;;;;;19.52;96.98;95035.97;5096862;28;20451;-90
2023/09/21 05:35:16;;;;;;;12.20;8.87;;;;;;;19.62;96.76;95025.06;5097025;28;20530;-89
2023/09/21 05:37:45;;;;;;;14.27;8.30;;;;;;;19.72;94.73;95020.31;5097562;28;20448;-90
2023/09/21 05:40:14;;;;;;;11.90;8.50;;;;;;;19.84;93.90;95021.50;5097095;28;20470;-91
2023/09/21 05:42:41;;;;;;;12.53;8.20;;;;;;;19.92;94.49;95021.41;5096727;28;20497;-89
2023/09/21 05:45:09;;;;;;;13.27;9.00;;;;;;;20.09;96.48;95022.88;5096137;28;20433;-86
2023/09/21 05:47:36;;;;;;;13.47;9.63;;;;;;;20.04;95.94;95027.13;5096677;28;20221;-89
2023/09/21 05:50:05;;;;;;;16.17;9.50;;;;;;;20.34;96.31;95023.41;5096751;28;20935;-89
2023/09/21 05:52:34;;;;;;;14.03;9.57;;;;;;;20.65;95.13;95022.34;5096800;28;20950;-89
2023/09/21 05:55:01;;;;;;;21.23;8.27;;;;;;;20.73;91.89;95031.03;5096248;28;20563;-88
2023/09/21 05:57:30;;;;;;;10.20;7.97;;;;;;;20.84;91.87;95032.41;5097495;28;20475;-89
2023/09/21 05:59:56;;;;;;;9.73;7.87;;;;;;;20.69;89.70;95027.09;5077545;28;20445;-89
2023/09/21 06:02:24;;;;;;;12.30;8.73;;;;;;;20.81;90.53;95030.09;5096683;28;20443;-89
2023/09/21 06:04:50;;;;;;;15.20;7.80;;;;;;;20.59;89.69;95029.25;5096413;28;20446;-88
2023/09/21 06:07:17;;;;;;;16.43;9.37;;;;;;;20.54;90.08;95030.84;5095533;28;20466;-88
2023/09/21 06:09:44;;;;;;;9.57;8.47;;;;;;;20.20;92.48;95032.22;5060567;28;20477;-88
2023/09/21 06:15:32;;;;;;;11.63;9.00;;;;;;;20.13;95.70;95030.50;4994012;28;20495;-88
2023/09/21 06:17:58;;;;;;;21.50;9.60;;;;;;;20.19;95.57;95032.41;4962555;28;20457;-89
2023/09/21 06:20:26;;;;;;;16.50;10.13;;;;;;;20.19;95.15;95038.56;4962151;28;20439;-89
2023/09/21 06:22:53;;;;;;;12.80;8.80;;;;;;;20.28;95.40;95032.16;4994068;28;20808;-90
2023/09/21 06:25:21;;;;;;;16.70;11.43;;;;;;;20.26;94.29;95038.69;4994004;28;20484;-88
2023/09/21 06:27:47;;;;;;;16.33;9.13;;;;;;;20.15;95.07;95042.63;4994062;28;20445;-90
2023/09/21 06:30:16;;;;;;;16.73;9.90;;;;;;;20.10;95.33;95048.50;4994240;28;20485;-89
2023/09/21 06:32:44;;;;;;;14.10;10.53;;;;;;;20.02;96.13;95042.47;4994023;28;20433;-90
2023/09/21 06:35:14;;;;;;;12.03;9.60;;;;;;;20.09;96.52;95048.69;4993680;28;20484;-89
2023/09/21 06:37:41;;;;;;;16.97;10.33;;;;;;;20.03;96.71;95030.78;4993894;28;20511;-88
2023/09/21 06:40:09;;;;;;;20.67;10.00;;;;;;;20.11;96.87;95025.34;5074618;28;20915;-89
2023/09/21 06:42:36;;;;;;;14.40;8.40;;;;;;;20.19;97.23;95022.59;5095726;28;20441;-90
2023/09/21 06:45:02;;;;;;;18.17;9.73;;;;;;;20.49;97.05;95028.72;5095284;28;20449;-89
2023/09/21 06:47:30;;;;;;;20.93;9.87;;;;;;;20.83;96.30;95027.25;5095737;28;20442;-90
2023/09/21 06:49:58;;;;;;;23.87;8.57;;;;;;;21.12;94.42;95024.47;5095106;28;20436;-89
2023/09/21 06:52:25;;;;;;;14.13;8.60;;;;;;;21.34;92.33;95030.63;5095099;28;20448;-90
2023/09/21 06:54:52;;;;;;;19.33;9.50;;;;;;;21.49;89.39;95019.88;5095419;28;20488;-88
2023/09/21 06:57:23;;;;;;;19.10;9.20;;;;;;;21.63;87.62;95026.94;5095367;28;20448;-90
2023/09/21 06:59:51;;;;;;;11.57;8.70;;;;;;;21.73;85.99;95040.81;5060971;28;20443;-89
2023/09/21 07:02:18;;;;;;;15.43;7.93;;;;;;;21.82;84.60;95039.63;5095227;28;20481;-89
2023/09/21 07:04:45;;;;;;;14.40;7.87;;;;;;;21.81;83.27;95046.00;5095514;28;20880;-89
2023/09/21 07:07:15;;;;;;;12.50;7.00;;;;;;;21.74;82.55;95042.47;5095250;28;20920;-89
2023/09/21 07:09:44;;;;;;;9.83;7.70;;;;;;;21.63;81.32;95046.47;5095027;28;20487;-89
2023/09/21 07:12:12;;;;;;;9.20;7.63;;;;;;;21.46;81.89;95049.63;5094970;28;20447;-89
2023/09/21 07:14:39;;;;;;;11.33;7.17;;;;;;;21.51;83.40;95044.53;5076025;28;20714;-90
2023/09/21 07:17:06;;;;;;;14.93;8.00;;;;;;;21.64;83.41;95045.44;5094560;28;20433;-89
2023/09/21 07:19:34;;;;;;;10.90;8.37;;;;;;;21.68;83.85;95050.41;5094417;28;20937;-87
2023/09/21 07:22:01;;;;;;;10.43;8.10;;;;;;;21.72;82.39;95046.34;5094820;28;20451;-89
2023/09/21 07:24:30;;;;;;;16.13;8.80;;;;;;;21.61;82.95;95048.50;5059035;28;20444;-87
2023/09/21 07:26:57;;;;;;;10.53;7.30;;;;;;;21.75;84.03;95043.28;5095074;28;20433;-90
2023/09/21 07:29:26;;;;;;;10.07;8.10;;;;;;;21.93;82.00;95044.41;5094255;28;20438;-89
2023/09/21 07:31:53;;;;;;;8.60;7.07;;;;;;;22.34;83.35;95045.50;5094468;28;20450;-90
2023/09/21 07:34:20;;;;;;;17.93;7.37;;;;;;;22.75;80.48;95048.13;5094756;28;20441;-90
2023/09/21 07:36:47;;;;;;;10.90;8.13;;;;;;;22.87;78.72;95057.28;5075593;28;20486;-89
2023/09/21 07:39:14;;;;;;;8.97;7.40;;;;;;;22.90;76.91;95056.88;5094372;28;20468;-89
2023/09/21 07:41:42;;;;;;;13.50;8.20;;;;;;;22.91;76.77;95049.66;5094068;28;20508;-90
2023/09/21 07:44:09;;;;;;;14.80;7.30;;;;;;;23.01;77.36;95050.09;5058519;28;20434;-88
2023/09/21 07:46:37;;;;;;;7.70;6.90;;;;;;;23.05;75.51;95054.81;5093863;28;20519;-89
2023/09/21 07:49:06;;;;;;;7.23;6.43;;;;;;;23.00;73.80;95056.47;5094167;28;20487;-89
2023/09/21 07:51:34;;;;;;;8.47;6.53;;;;;;;23.03;73.79;95072.94;5094639;28;20438;-88
2023/09/21 07:54:01;;;;;;;13.37;7.07;;;;;;;23.06;73.32;95063.69;5094198;28;20442;-90
2023/09/21 07:56:28;;;;;;;10.07;7.50;;;;;;;23.09;73.72;95057.91;5094088;28;20522;-87
2023/09/21 07:58:56;;;;;;;9.87;8.07;;;;;;;23.14;73.44;95064.34;5075683;28;20439;-89
2023/09/21 08:01:26;;;;;;;14.37;8.50;;;;;;;23.20;73.44;95064.53;5094522;28;21009;-87
2023/09/21 08:03:54;;;;;;;9.63;7.17;;;;;;;23.24;73.53;95060.44;5094497;28;20456;-89
2023/09/21 08:06:22;;;;;;;9.37;5.83;;;;;;;23.28;73.45;95059.81;5093941;28;20479;-89
2023/09/21 08:08:52;;;;;;;13.47;7.53;;;;;;;23.29;72.99;95048.06;5094061;28;20443;-89
2023/09/21 08:11:19;;;;;;;12.70;7.63;;;;;;;23.26;72.67;95053.84;5059177;28;21003;-89
2023/09/21 08:13:45;;;;;;;12.67;8.93;;;;;;;23.27;73.25;95049.31;5094240;28;20500;-88
2023/09/21 08:16:14;;;;;;;11.17;8.20;;;;;;;23.30;73.23;95054.25;5093881;28;20486;-89
2023/09/21 08:18:41;;;;;;;10.80;8.10;;;;;;;23.34;73.67;95053.63;5094464;28;20478;-89
2023/09/21 08:21:10;;;;;;;13.67;6.93;;;;;;;23.38;73.69;95057.53;5094089;28;20496;-89
2023/09/21 08:23:37;;;;;;;18.17;7.50;;;;;;;23.38;73.42;95044.16;5094041;28;20805;-89
2023/09/21 08:26:04;;;;;;;12.17;8.27;;;;;;;23.41;74.01;95058.97;5094362;28;20976;-90
2023/09/21 08:28:31;;;;;;;9.10;7.40;;;;;;;23.44;75.31;95054.06;5094240;28;20444;-89
2023/09/21 08:30:58;;;;;;;9.60;7.60;;;;;;;23.43;73.63;95055.09;5098149;28;20457;-89
2023/09/21 08:33:26;;;;;;;12.10;8.20;;;;;;;23.42;73.74;95053.44;5098248;28;20450;-88
2023/09/21 08:35:53;;;;;;;8.33;7.53;;;;;;;23.39;73.72;95056.50;5062927;28;20889;-89
2023/09/21 08:38:20;;;;;;;15.97;8.50;;;;;;;23.34;74.00;95053.63;5098818;28;20487;-90
2023/09/21 08:40:53;;;;;;;16.57;8.30;;;;;;;23.29;73.34;95050.75;5098427;28;20790;-89
2023/09/21 08:43:22;;;;;;;15.70;9.20;;;;;;;23.30;73.85;95052.41;5098714;28;20450;-90
2023/09/21 08:45:51;;;;;;;9.13;6.87;;;;;;;23.33;74.32;95062.69;5097974;28;20931;-90
2023/09/21 08:48:20;;;;;;;8.83;7.20;;;;;;;23.28;74.29;95062.50;5098373;28;20449;-89
2023/09/21 08:50:50;;;;;;;13.70;6.80;;;;;;;23.24;74.80;95058.56;5098106;28;20465;-89
2023/09/21 08:53:20;;;;;;;8.60;7.70;;;;;;;23.23;74.74;95064.13;5098310;28;20852;-87
2023/09/21 08:55:49;;;;;;;11.20;6.70;;;;;;;23.19;74.09;95055.69;5097762;28;20478;-90
2023/09/21 08:58:23;;;;;;;9.10;7.90;;;;;;;23.19;74.88;95055.69;5097985;28;20439;-88
2023/09/21 09:00:54;;;;;;;16.90;7.60;;;;;;;23.17;74.90;95055.91;5097870;28;20445;-88
2023/09/21 09:03:25;;;;;;;11.30;8.20;;;;;;;23.15;75.83;95059.81;5097774;28;20478;-88
2023/09/21 09:05:55;;;;;;;11.27;6.90;;;;;;;23.17;75.80;95055.06;5097712;28;20451;-89
2023/09/21 09:08:22;;;;;;;11.83;8.37;;;;;;;23.20;76.71;95062.69;5097676;28;20485;-88
2023/09/21 09:10:50;;;;;;;7.87;7.07;;;;;;;23.17;77.87;95052.41;5096925;28;21071;-89
2023/09/21 09:13:17;;;;;;;8.63;7.67;;;;;;;23.16;78.66;95051.56;5097907;28;20451;-88
2023/09/21 09:15:45;;;;;;;9.37;7.00;;;;;;;23.17;79.55;95055.06;5097063;28;20494;-90
2023/09/21 09:18:12;;;;;;;10.70;7.50;;;;;;;23.12;78.09;95044.13;5097565;28;20469;-90
2023/09/21 09:20:39;;;;;;;9.93;7.13;;;;;;;23.13;77.02;95043.94;5097753;28;20490;-89
2023/09/21 09:23:10;;;;;;;8.90;6.97;;;;;;;23.17;77.15;95039.00;5097205;28;20457;-90
2023/09/21 09:25:37;;;;;;;17.10;8.90;;;;;;;23.15;79.08;95033.03;5097145;28;20462;-89
2023/09/21 09:28:05;;;;;;;11.00;8.33;;;;;;;23.16;79.79;95040.84;5096999;28;20443;-88
2023/09/21 09:30:32;;;;;;;13.63;9.03;;;;;;;23.16;79.73;95032.00;5096885;28;21025;-89
2023/09/21 09:33:00;;;;;;;14.10;8.40;;;;;;;23.17;79.53;95037.16;5097431;28;20794;-88
2023/09/21 09:35:28;;;;;;;10.63;8.13;;;;;;;23.22;80.52;95039.22;5078459;28;20968;-89
2023/09/21 09:37:56;;;;;;;21.23;6.80;;;;;;;23.25;80.11;95040.66;5061366;28;20427;-89
2023/09/21 09:40:24;;;;;;;14.43;8.00;;;;;;;23.22;79.30;95036.53;5096698;28;20446;-89
2023/09/21 09:42:52;;;;;;;14.30;8.63;;;;;;;23.21;79.81;95028.72;5096918;28;20440;-89
2023/09/21 09:45:22;;;;;;;15.00;8.67;;;;;;;23.24;79.93;95037.16;5062026;28;20447;-88
2023/09/21 09:47:57;;;;;;;21.23;12.27;;;;;;;23.21;81.08;95034.06;5097794;28;20444;-88
2023/09/21 09:50:25;;;;;;;30.90;16.63;;;;;;;23.22;80.59;95031.19;5097704;28;20454;-89
2023/09/21 09:53:02;;;;;;;27.67;16.20;;;;;;;23.25;80.87;95024.59;5096804;28;20443;-88
2023/09/21 09:55:33;;;;;;;22.37;11.67;;;;;;;23.22;80.62;95022.31;5095895;28;20446;-90
2023/09/21 09:58:00;;;;;;;25.60;11.40;;;;;;;23.23;80.32;95010.59;5078585;28;20534;-89
2023/09/21 10:00:27;;;;;;;17.67;10.03;;;;;;;23.24;80.22;95014.91;5095685;28;20441;-90
2023/09/21 10:02:56;;;;;;;18.07;9.67;;;;;;;23.25;80.51;95017.38;5095718;28;20462;-88
2023/09/21 10:05:25;;;;;;;17.80;9.13;;;;;;;23.27;80.87;95020.69;5096847;28;20472;-89
2023/09/21 10:07:54;;;;;;;13.80;9.80;;;;;;;23.31;81.34;95011.19;5096333;28;20442;-89
2023/09/21 10:10:24;;;;;;;12.40;9.37;;;;;;;23.36;82.01;95008.72;5096505;28;20477;-89
2023/09/21 10:12:53;;;;;;;19.13;9.20;;;;;;;23.43;82.09;95014.94;5096259;28;20448;-89
2023/09/21 10:15:22;;;;;;;20.83;9.80;;;;;;;23.50;82.17;95009.56;5096018;28;20482;-89
2023/09/21 10:17:50;;;;;;;11.80;9.00;;;;;;;23.56;81.10;95010.63;5095504;28;20489;-88
2023/09/21 10:20:25;;;;;;;15.70;8.87;;;;;;;23.61;81.06;95000.09;5095637;28;20447;-89
2023/09/21 10:22:55;;;;;;;13.97;8.37;;;;;;;23.74;79.98;95011.63;5095975;28;20496;-89
2023/09/21 10:25:38;;;;;;;10.97;7.23;;;;;;;23.82;77.15;95009.75;5095189;28;20435;-89
2023/09/21 10:28:39;;;;;;;11.03;7.73;;;;;;;23.93;77.21;95007.25;5095278;28;20856;-89
2023/09/21 10:31:27;;;;;;;19.30;9.83;;;;;;;24.02;75.42;95013.25;5032724;28;20974;-87
2023/09/21 10:34:08;;;;;;;8.77;7.17;;;;;;;24.20;72.18;95009.88;4993322;28;20510;-89
2023/09/21 10:36:40;;;;;;;10.97;7.33;;;;;;;24.27;73.11;94999.94;4993267;28;21045;-89
2023/09/21 10:39:28;;;;;;;7.67;6.73;;;;;;;24.45;74.72;95002.78;4993384;28;20470;-88
2023/09/21 10:42:29;;;;;;;12.10;7.67;;;;;;;24.55;71.01;95008.53;4993363;28;20449;-89
2023/09/21 10:45:02;;;;;;;13.83;8.47;;;;;;;24.68;71.84;94996.91;4993295;28;20522;-88
2023/09/21 10:47:48;;;;;;;8.13;7.30;;;;;;;24.86;71.65;95005.06;4992897;28;20456;-89
2023/09/21 10:50:17;;;;;;;9.00;6.70;;;;;;;24.88;69.07;95000.31;4993170;28;20440;-87
2023/09/21 10:52:46;;;;;;;8.67;7.60;;;;;;;24.98;69.15;95002.53;4992739;28;20475;-90
2023/09/21 10:55:16;;;;;;;11.33;6.87;;;;;;;25.07;68.95;95006.63;4992894;28;20447;-89
2023/09/21 10:57:44;;;;;;;10.30;6.70;;;;;;;25.17;69.83;94990.03;4992767;28;20510;-88
2023/09/21 11:00:16;;;;;;;13.83;7.60;;;;;;;25.07;68.54;94995.06;4992779;28;20955;-89
2023/09/21 11:02:46;;;;;;;15.10;8.40;;;;;;;25.02;67.86;94988.47;4993079;28;20511;-88
2023/09/21 11:05:13;;;;;;;11.00;8.37;;;;;;;25.15;68.79;94984.03;4992830;28;20539;-86
2023/09/21 11:07:41;;;;;;;12.43;8.00;;;;;;;25.06;68.29;94977.28;5004735;28;20528;-88
2023/09/21 11:10:11;;;;;;;9.80;7.23;;;;;;;25.24;68.64;94978.22;5056106;28;20871;-87
2023/09/21 11:12:40;;;;;;;15.17;7.00;;;;;;;25.25;69.39;94974.47;5059321;28;20436;-87
2023/09/21 11:15:09;;;;;;;17.80;8.07;;;;;;;25.27;69.56;94972.38;5094382;28;20440;-87
2023/09/21 11:17:36;;;;;;;18.00;8.70;;;;;;;25.32;68.44;94975.25;5093967;28;20483;-88
2023/09/21 11:20:05;;;;;;;13.73;8.87;;;;;;;25.02;68.03;94960.81;5093741;28;20447;-87
2023/09/21 11:22:33;;;;;;;11.53;7.57;;;;;;;25.15;68.65;94954.50;5058754;28;20694;-88
2023/09/21 11:25:00;;;;;;;9.10;7.97;;;;;;;25.05;68.45;94948.81;5058744;28;20974;-87
2023/09/21 11:27:28;;;;;;;14.57;7.50;;;;;;;25.06;68.13;94948.59;5094451;28;20677;-87
2023/09/21 11:29:56;;;;;;;13.33;8.50;;;;;;;25.05;69.83;94938.06;5094192;28;20848;-88
2023/09/21 11:32:23;;;;;;;10.70;8.30;;;;;;;25.12;68.28;94936.97;5094320;28;20444;-86
2023/09/21 11:34:58;;;;;;;10.30;7.67;;;;;;;25.17;68.91;94945.22;5094525;28;20428;-87
2023/09/21 11:37:28;;;;;;;12.83;7.70;;;;;;;25.26;68.53;94930.44;5094278;28;20494;-88
2023/09/21 11:39:55;;;;;;;12.83;8.40;;;;;;;25.29;69.33;94930.00;5094446;28;20444;-87
2023/09/21 11:42:25;;;;;;;8.70;7.80;;;;;;;25.31;68.58;94932.47;5093817;28;20817;-87